createdAt,value
2023-04-27T00:00:36.265Z,2.40
2023-04-27T00:03:21.799Z,2.33
2023-04-27T00:06:09.119Z,2.31
2023-04-27T00:08:54.434Z,2.24
2023-04-27T00:12:11.193Z,2.16
2023-04-27T00:14:56.516Z,2.13
2023-04-27T00:17:43.508Z,2.14
2023-04-27T00:20:28.563Z,2.13
2023-04-27T00:23:13.951Z,2.13
2023-04-27T00:25:59.163Z,2.04
2023-04-27T00:28:44.484Z,2.03
2023-04-27T00:31:29.854Z,2.03
2023-04-27T00:34:15.172Z,2.02
2023-04-27T00:37:00.454Z,2.02
2023-04-27T00:39:45.765Z,2.02
2023-04-27T00:42:31.168Z,1.99
2023-04-27T00:45:16.633Z,1.88
2023-04-27T00:48:01.814Z,1.83
2023-04-27T00:50:47.200Z,1.76
2023-04-27T00:53:33.166Z,1.71
2023-04-27T00:56:18.607Z,1.69
2023-04-27T00:59:03.992Z,1.60
2023-04-27T01:01:50.051Z,1.59
2023-04-27T01:04:36.976Z,1.56
2023-04-27T01:07:26.874Z,1.56
2023-04-27T01:10:12.000Z,1.51
2023-04-27T01:12:57.681Z,1.50
2023-04-27T01:15:42.795Z,1.43
2023-04-27T01:18:27.976Z,1.44
2023-04-27T01:21:13.255Z,1.38
2023-04-27T01:23:58.538Z,1.36
2023-04-27T01:26:43.763Z,1.33
2023-04-27T01:29:29.411Z,1.31
2023-04-27T01:32:14.527Z,1.29
2023-04-27T01:34:59.646Z,1.24
2023-04-27T01:37:44.907Z,1.29
2023-04-27T01:40:30.592Z,1.26
2023-04-27T01:43:16.123Z,1.24
2023-04-27T01:46:13.134Z,1.19
2023-04-27T01:48:58.707Z,1.20
2023-04-27T01:51:44.072Z,1.12
2023-04-27T01:54:29.348Z,1.10
2023-04-27T01:57:14.796Z,1.08
2023-04-27T02:00:00.274Z,1.06
2023-04-27T02:02:45.998Z,1.02
2023-04-27T02:05:31.506Z,1.04
2023-04-27T02:08:16.869Z,1.03
2023-04-27T02:11:02.205Z,1.04
2023-04-27T02:13:48.869Z,1.02
2023-04-27T02:16:33.982Z,1.02
2023-04-27T02:19:19.348Z,1.10
2023-04-27T02:22:04.551Z,1.14
2023-04-27T02:24:49.831Z,1.21
2023-04-27T02:27:40.871Z,1.21
2023-04-27T02:30:26.311Z,1.22
2023-04-27T02:33:12.305Z,1.19
2023-04-27T02:35:57.498Z,1.17
2023-04-27T02:38:42.608Z,1.11
2023-04-27T02:41:31.997Z,1.13
2023-04-27T02:44:17.171Z,1.12
2023-04-27T02:47:02.703Z,1.07
2023-04-27T02:49:47.886Z,1.04
2023-04-27T02:52:33.111Z,0.87
2023-04-27T02:55:18.359Z,0.83
2023-04-27T02:58:03.970Z,0.87
2023-04-27T03:00:54.396Z,0.91
2023-04-27T03:03:39.519Z,0.93
2023-04-27T03:06:24.584Z,0.90
2023-04-27T03:09:16.115Z,0.91
2023-04-27T03:12:02.651Z,0.92
2023-04-27T03:14:47.865Z,0.90
2023-04-27T03:17:32.871Z,0.84
2023-04-27T03:20:18.114Z,0.78
2023-04-27T03:23:03.474Z,0.73
2023-04-27T03:25:49.325Z,0.75
2023-04-27T03:28:35.264Z,0.70
2023-04-27T03:31:20.512Z,0.67
2023-04-27T03:34:05.852Z,0.68
2023-04-27T03:36:51.232Z,0.70
2023-04-27T03:39:36.450Z,0.74
2023-04-27T03:42:22.265Z,0.74
2023-04-27T03:45:08.244Z,0.68
2023-04-27T03:47:53.816Z,0.63
2023-04-27T03:50:38.992Z,0.58
2023-04-27T03:53:24.294Z,0.56
2023-04-27T03:56:09.665Z,0.53
2023-04-27T03:58:55.002Z,0.53
2023-04-27T04:01:41.356Z,0.54
2023-04-27T04:04:26.577Z,0.55
2023-04-27T04:07:12.050Z,0.55
2023-04-27T04:09:57.019Z,0.56
2023-04-27T04:12:42.256Z,0.56
2023-04-27T04:15:27.860Z,0.57
2023-04-27T04:18:13.119Z,0.48
2023-04-27T04:20:58.467Z,0.47
2023-04-27T04:23:43.815Z,0.51
2023-04-27T04:26:29.078Z,0.49
2023-04-27T04:29:14.660Z,0.56
2023-04-27T04:32:00.249Z,0.60
2023-04-27T04:34:51.826Z,0.60
2023-04-27T04:37:37.296Z,0.66
2023-04-27T04:40:22.610Z,0.64
2023-04-27T04:43:08.140Z,0.68
2023-04-27T04:45:53.368Z,0.67
2023-04-27T04:48:38.856Z,0.74
2023-04-27T04:51:24.053Z,0.78
2023-04-27T04:54:09.936Z,0.78
2023-04-27T04:56:55.285Z,0.83
2023-04-27T04:59:41.200Z,0.89
2023-04-27T05:02:26.532Z,0.95
2023-04-27T05:05:11.862Z,0.88
2023-04-27T05:07:57.073Z,0.86
2023-04-27T05:10:42.467Z,0.88
2023-04-27T05:13:28.119Z,0.91
2023-04-27T05:16:13.418Z,0.90
2023-04-27T05:18:58.877Z,0.93
2023-04-27T05:21:47.471Z,0.99
2023-04-27T05:24:33.417Z,0.98
2023-04-27T05:27:18.592Z,0.94
2023-04-27T05:30:04.094Z,1.01
2023-04-27T05:32:49.191Z,1.00
2023-04-27T05:35:34.810Z,1.04
2023-04-27T05:38:20.080Z,1.02
2023-04-27T05:41:05.225Z,1.11
2023-04-27T05:43:51.405Z,1.10
2023-04-27T05:46:38.700Z,1.12
2023-04-27T05:49:24.037Z,1.24
2023-04-27T05:52:08.983Z,1.36
2023-04-27T05:54:54.235Z,1.44
2023-04-27T05:57:39.747Z,1.45
2023-04-27T06:00:25.955Z,1.50
2023-04-27T06:03:11.328Z,1.52
2023-04-27T06:05:59.123Z,1.60
2023-04-27T06:08:44.685Z,1.70
2023-04-27T06:11:29.908Z,1.83
2023-04-27T06:14:15.169Z,1.96
2023-04-27T06:17:00.398Z,2.14
2023-04-27T06:19:46.090Z,2.30
2023-04-27T06:22:31.323Z,2.45
2023-04-27T06:25:16.656Z,2.62
2023-04-27T06:28:01.999Z,2.81
2023-04-27T06:30:47.339Z,2.98
2023-04-27T06:33:32.966Z,3.09
2023-04-27T06:36:18.188Z,3.24
2023-04-27T06:39:03.534Z,3.40
2023-04-27T06:41:48.901Z,3.61
2023-04-27T06:44:34.234Z,3.84
2023-04-27T06:47:19.682Z,4.10
2023-04-27T06:50:05.440Z,4.32
2023-04-27T06:52:50.686Z,4.54
2023-04-27T06:55:36.145Z,4.69
2023-04-27T06:58:22.247Z,4.73
2023-04-27T07:01:07.693Z,4.79
2023-04-27T07:03:53.085Z,4.85
2023-04-27T07:06:38.322Z,4.87
2023-04-27T07:09:27.583Z,4.96
2023-04-27T07:12:12.983Z,4.98
2023-04-27T07:14:58.216Z,5.08
2023-04-27T07:17:43.656Z,5.11
2023-04-27T07:20:28.729Z,5.19
2023-04-27T07:23:14.007Z,5.23
2023-04-27T07:25:59.352Z,5.23
2023-04-27T07:28:44.827Z,5.28
2023-04-27T07:31:30.185Z,5.33
2023-04-27T07:34:15.511Z,5.34
2023-04-27T07:37:01.716Z,5.39
2023-04-27T07:39:46.810Z,5.43
2023-04-27T07:42:31.805Z,5.45
2023-04-27T07:45:19.885Z,5.52
2023-04-27T07:48:06.087Z,5.55
2023-04-27T07:50:51.474Z,5.60
2023-04-27T07:53:36.837Z,5.62
2023-04-27T07:56:22.215Z,5.69
2023-04-27T07:59:07.620Z,5.75
2023-04-27T08:01:54.407Z,5.79
2023-04-27T08:04:42.699Z,5.93
2023-04-27T08:07:29.246Z,6.07
2023-04-27T08:10:15.808Z,6.24
2023-04-27T08:13:01.279Z,6.30
2023-04-27T08:15:46.606Z,6.40
2023-04-27T08:18:31.826Z,6.56
2023-04-27T08:21:17.317Z,6.62
2023-04-27T08:24:03.474Z,6.60
2023-04-27T08:26:48.826Z,6.67
2023-04-27T08:29:34.602Z,6.64
2023-04-27T08:32:20.306Z,6.68
2023-04-27T08:35:06.364Z,6.72
2023-04-27T08:37:51.346Z,6.74
2023-04-27T08:40:41.807Z,6.74
2023-04-27T08:43:26.959Z,6.67
2023-04-27T08:46:12.316Z,6.70
2023-04-27T08:48:57.783Z,6.67
2023-04-27T08:51:43.817Z,6.71
2023-04-27T08:54:28.973Z,6.68
2023-04-27T08:57:15.840Z,6.63
2023-04-27T09:00:01.370Z,6.62
2023-04-27T09:02:48.195Z,6.58
2023-04-27T09:05:34.114Z,6.55
2023-04-27T09:08:19.631Z,6.45
2023-04-27T09:11:05.137Z,6.41
2023-04-27T09:13:50.667Z,6.47
2023-04-27T09:16:35.832Z,6.47
2023-04-27T09:19:26.100Z,6.51
2023-04-27T09:22:11.914Z,6.50
2023-04-27T09:24:56.942Z,6.50
2023-04-27T09:27:44.459Z,6.50
2023-04-27T09:30:30.147Z,6.48
2023-04-27T09:33:15.610Z,6.56
2023-04-27T09:36:03.777Z,6.65
2023-04-27T09:38:49.847Z,6.74
2023-04-27T09:41:36.046Z,6.84
2023-04-27T09:44:21.181Z,6.86
2023-04-27T09:47:07.529Z,6.97
2023-04-27T09:49:52.866Z,7.14
2023-04-27T09:52:38.151Z,7.18
2023-04-27T09:55:51.680Z,7.22
2023-04-27T09:58:54.677Z,7.24
2023-04-27T10:01:47.049Z,7.21
2023-04-27T10:05:11.973Z,7.10
2023-04-27T10:07:57.618Z,7.06
2023-04-27T10:10:53.337Z,7.08
2023-04-27T10:13:38.491Z,7.13
2023-04-27T10:16:24.044Z,7.13
2023-04-27T10:19:10.096Z,7.10
2023-04-27T10:22:07.932Z,7.16
2023-04-27T10:24:53.361Z,7.17
2023-04-27T10:27:40.092Z,7.24
2023-04-27T10:30:37.376Z,7.42
2023-04-27T10:33:23.370Z,7.57
2023-04-27T10:36:14.746Z,7.56
2023-04-27T10:39:00.698Z,7.61
2023-04-27T10:41:56.845Z,7.75
2023-04-27T10:44:42.467Z,7.74
2023-04-27T10:47:39.675Z,7.75
2023-04-27T10:50:25.475Z,7.79
2023-04-27T10:53:10.884Z,7.76
2023-04-27T10:55:56.664Z,7.75
2023-04-27T10:58:48.965Z,7.73
2023-04-27T11:01:35.505Z,7.71
2023-04-27T11:04:20.962Z,7.71
2023-04-27T11:07:10.253Z,7.79
2023-04-27T11:09:55.848Z,7.85
2023-04-27T11:12:41.224Z,7.87
2023-04-27T11:15:26.747Z,7.87
2023-04-27T11:18:12.348Z,7.81
2023-04-27T11:21:09.684Z,7.91
2023-04-27T11:23:54.980Z,7.99
2023-04-27T11:26:40.398Z,8.16
2023-04-27T11:29:25.882Z,8.22
2023-04-27T11:32:21.739Z,8.30
2023-04-27T11:35:07.406Z,8.29
2023-04-27T11:38:01.716Z,8.23
2023-04-27T11:40:47.881Z,8.29
2023-04-27T11:43:34.150Z,8.31
2023-04-27T11:46:22.522Z,8.28
2023-04-27T11:49:10.977Z,8.24
2023-04-27T11:51:57.554Z,8.23
2023-04-27T11:54:56.285Z,8.25
2023-04-27T11:57:42.231Z,8.24
2023-04-27T12:00:27.354Z,8.24
2023-04-27T12:03:13.065Z,8.15
2023-04-27T12:06:11.380Z,8.09
2023-04-27T12:09:02.207Z,8.03
2023-04-27T12:11:47.419Z,7.92
2023-04-27T12:14:32.885Z,7.93
2023-04-27T12:17:18.517Z,7.94
2023-04-27T12:20:04.610Z,8.00
2023-04-27T12:22:50.229Z,8.01
2023-04-27T12:25:36.684Z,8.04
2023-04-27T12:28:21.787Z,7.96
2023-04-27T12:31:08.631Z,7.95
2023-04-27T12:33:54.173Z,7.99
2023-04-27T12:36:39.437Z,8.05
2023-04-27T12:39:27.354Z,8.11
2023-04-27T12:42:12.530Z,8.15
2023-04-27T12:44:58.374Z,8.17
2023-04-27T12:47:58.656Z,8.20
2023-04-27T12:50:47.414Z,8.21
2023-04-27T12:53:32.780Z,8.22
2023-04-27T12:56:18.498Z,8.22
2023-04-27T12:59:04.091Z,8.25
2023-04-27T13:01:49.650Z,8.16
2023-04-27T13:04:36.222Z,8.20
2023-04-27T13:07:21.462Z,8.26
2023-04-27T13:10:08.511Z,8.20
2023-04-27T13:12:54.496Z,8.17
2023-04-27T13:15:40.163Z,8.16
2023-04-27T13:18:26.127Z,8.12
2023-04-27T13:21:11.589Z,8.14
2023-04-27T13:23:59.572Z,8.24
2023-04-27T13:26:45.451Z,8.29
2023-04-27T13:29:31.486Z,8.44
2023-04-27T13:32:16.829Z,8.53
2023-04-27T13:35:03.821Z,8.63
2023-04-27T13:37:49.360Z,8.66
2023-04-27T13:40:34.883Z,8.62
2023-04-27T13:43:19.837Z,8.67
2023-04-27T13:46:05.707Z,8.74
2023-04-27T13:48:51.053Z,8.71
2023-04-27T13:51:36.849Z,8.71
2023-04-27T13:54:22.210Z,8.74
2023-04-27T13:57:07.446Z,8.66
2023-04-27T13:59:53.238Z,8.60
2023-04-27T14:02:39.531Z,8.40
2023-04-27T14:05:24.942Z,8.28
2023-04-27T14:08:10.817Z,8.21
2023-04-27T14:10:56.224Z,8.26
2023-04-27T14:13:43.053Z,8.23
2023-04-27T14:16:28.586Z,8.20
2023-04-27T14:19:16.301Z,8.11
2023-04-27T14:22:01.939Z,8.13
2023-04-27T14:24:47.318Z,8.16
2023-04-27T14:27:32.769Z,8.19
2023-04-27T14:30:18.432Z,8.23
2023-04-27T14:33:03.885Z,8.23
2023-04-27T14:35:49.419Z,8.26
2023-04-27T14:38:34.802Z,8.27
2023-04-27T14:41:20.020Z,8.29
2023-04-27T14:44:07.674Z,8.36
2023-04-27T14:46:53.988Z,8.36
2023-04-27T14:49:39.131Z,8.33
2023-04-27T14:52:24.558Z,8.36
2023-04-27T14:55:11.445Z,8.37
2023-04-27T14:57:56.887Z,8.41
2023-04-27T15:00:42.342Z,8.52
2023-04-27T15:03:28.203Z,8.56
2023-04-27T15:06:13.903Z,8.61
2023-04-27T15:08:59.356Z,8.62
2023-04-27T15:11:45.067Z,8.68
2023-04-27T15:14:30.135Z,8.71
2023-04-27T15:17:15.538Z,8.65
2023-04-27T15:20:01.345Z,8.58
2023-04-27T15:22:47.193Z,8.58
2023-04-27T15:25:32.685Z,8.57
2023-04-27T15:28:18.682Z,8.53
2023-04-27T15:31:03.830Z,8.48
2023-04-27T15:33:49.124Z,8.42
2023-04-27T15:36:34.521Z,8.46
2023-04-27T15:39:19.714Z,8.48
2023-04-27T15:42:05.448Z,8.51
2023-04-27T15:44:51.248Z,8.48
2023-04-27T15:47:36.489Z,8.45
2023-04-27T15:50:22.528Z,8.42
2023-04-27T15:53:07.544Z,8.41
2023-04-27T15:55:52.893Z,8.37
2023-04-27T15:58:38.325Z,8.32
2023-04-27T16:01:23.740Z,8.28
2023-04-27T16:04:09.348Z,8.34
2023-04-27T16:06:55.026Z,8.30
2023-04-27T16:09:40.511Z,8.23
2023-04-27T16:12:26.411Z,8.24
2023-04-27T16:15:11.991Z,8.19
2023-04-27T16:17:57.325Z,8.20
2023-04-27T16:20:42.731Z,8.13
2023-04-27T16:23:28.467Z,8.10
2023-04-27T16:26:13.568Z,8.08
2023-04-27T16:28:58.979Z,8.10
2023-04-27T16:31:44.869Z,8.14
2023-04-27T16:34:31.362Z,8.12
2023-04-27T16:37:16.704Z,8.09
2023-04-27T16:40:07.006Z,8.08
2023-04-27T16:42:52.630Z,8.08
2023-04-27T16:45:38.823Z,8.14
2023-04-27T16:48:24.301Z,8.22
2023-04-27T16:51:10.718Z,8.27
2023-04-27T16:53:58.323Z,8.23
2023-04-27T16:56:45.960Z,8.20
2023-04-27T16:59:31.431Z,8.22
2023-04-27T17:02:24.363Z,8.27
2023-04-27T17:05:11.064Z,8.20
2023-04-27T17:07:56.668Z,8.20
2023-04-27T17:10:41.934Z,8.15
2023-04-27T17:13:27.219Z,8.16
2023-04-27T17:16:13.640Z,8.17
2023-04-27T17:18:58.845Z,8.21
2023-04-27T17:21:43.928Z,8.26
2023-04-27T17:24:29.445Z,8.32
2023-04-27T17:27:14.971Z,8.35
2023-04-27T17:30:00.680Z,8.35
2023-04-27T17:32:45.823Z,8.36
2023-04-27T17:35:31.261Z,8.35
2023-04-27T17:38:16.790Z,8.30
2023-04-27T17:41:02.004Z,8.28
2023-04-27T17:43:47.114Z,8.26
2023-04-27T17:46:32.497Z,8.24
2023-04-27T17:49:19.105Z,8.21
2023-04-27T17:52:05.165Z,8.17
2023-04-27T17:54:50.859Z,8.14
2023-04-27T17:57:36.287Z,8.09
2023-04-27T18:00:24.055Z,8.06
2023-04-27T18:03:09.805Z,8.02
2023-04-27T18:05:55.800Z,7.95
2023-04-27T18:08:41.297Z,7.91
2023-04-27T18:11:27.478Z,7.86
2023-04-27T18:14:12.874Z,7.81
2023-04-27T18:16:59.936Z,7.75
2023-04-27T18:19:55.328Z,7.68
2023-04-27T18:22:46.555Z,7.59
2023-04-27T18:25:32.098Z,7.54
2023-04-27T18:28:17.571Z,7.51
2023-04-27T18:31:02.675Z,7.46
2023-04-27T18:33:49.131Z,7.40
2023-04-27T18:36:34.380Z,7.34
2023-04-27T18:39:20.754Z,7.20
2023-04-27T18:42:06.571Z,7.13
2023-04-27T18:45:00.391Z,6.91
2023-04-27T18:47:46.207Z,6.87
2023-04-27T18:50:31.704Z,6.86
2023-04-27T18:53:17.446Z,6.88
2023-04-27T18:56:09.500Z,6.87
2023-04-27T18:58:56.016Z,6.84
2023-04-27T19:01:41.451Z,6.83
2023-04-27T19:04:27.353Z,6.77
2023-04-27T19:07:12.850Z,6.75
2023-04-27T19:09:58.366Z,6.63
2023-04-27T19:12:43.659Z,6.61
2023-04-27T19:15:29.027Z,6.62
2023-04-27T19:18:15.132Z,6.63
2023-04-27T19:21:00.951Z,6.59
2023-04-27T19:23:46.252Z,6.56
2023-04-27T19:26:32.252Z,6.54
2023-04-27T19:29:18.060Z,6.53
2023-04-27T19:32:05.876Z,6.52
2023-04-27T19:34:51.583Z,6.48
2023-04-27T19:37:37.180Z,6.42
2023-04-27T19:40:22.570Z,6.37
2023-04-27T19:43:09.728Z,6.36
2023-04-27T19:45:54.882Z,6.33
2023-04-27T19:48:42.353Z,6.27
2023-04-27T19:51:29.263Z,6.18
2023-04-27T19:54:14.832Z,6.10
2023-04-27T19:57:01.281Z,6.01
2023-04-27T19:59:47.922Z,5.94
2023-04-27T20:02:34.554Z,5.86
2023-04-27T20:05:21.421Z,5.73
2023-04-27T20:08:08.582Z,5.67
2023-04-27T20:10:54.169Z,5.67
2023-04-27T20:13:39.177Z,5.56
2023-04-27T20:16:25.983Z,5.43
2023-04-27T20:19:12.409Z,5.32
2023-04-27T20:21:57.764Z,5.28
2023-04-27T20:24:43.731Z,5.16
2023-04-27T20:27:29.199Z,5.07
2023-04-27T20:30:14.748Z,4.95
2023-04-27T20:33:01.487Z,4.93
2023-04-27T20:35:47.222Z,4.87
2023-04-27T20:38:32.711Z,4.74
2023-04-27T20:41:17.894Z,4.64
2023-04-27T20:44:03.485Z,4.53
2023-04-27T20:46:49.087Z,4.53
2023-04-27T20:49:35.748Z,4.51
2023-04-27T20:52:21.259Z,4.53
2023-04-27T20:55:06.904Z,4.51
2023-04-27T20:57:51.951Z,4.39
2023-04-27T21:00:37.431Z,4.32
2023-04-27T21:03:22.971Z,4.30
2023-04-27T21:06:08.207Z,4.24
2023-04-27T21:08:53.536Z,4.19
2023-04-27T21:11:38.908Z,4.18
2023-04-27T21:14:24.440Z,4.10
2023-04-27T21:17:10.314Z,4.04
2023-04-27T21:19:58.044Z,4.00
2023-04-27T21:22:43.153Z,4.02
2023-04-27T21:25:28.673Z,4.06
2023-04-27T21:28:14.342Z,4.02
2023-04-27T21:30:59.265Z,3.96
2023-04-27T21:33:44.575Z,3.89
2023-04-27T21:36:30.374Z,3.91
2023-04-27T21:39:15.897Z,3.89
2023-04-27T21:42:01.340Z,3.85
2023-04-27T21:44:47.165Z,3.79
2023-04-27T21:47:32.597Z,3.77
2023-04-27T21:50:18.179Z,3.79
2023-04-27T21:53:03.185Z,3.72
2023-04-27T21:55:49.684Z,3.72
2023-04-27T21:58:34.681Z,3.75
2023-04-27T22:01:19.996Z,3.71
2023-04-27T22:04:06.921Z,3.65
2023-04-27T22:06:52.635Z,3.62
2023-04-27T22:09:38.017Z,3.59
2023-04-27T22:12:23.068Z,3.52
2023-04-27T22:15:09.050Z,3.48
2023-04-27T22:17:55.836Z,3.48
2023-04-27T22:20:42.424Z,3.49
2023-04-27T22:23:31.260Z,3.54
2023-04-27T22:26:16.729Z,3.56
2023-04-27T22:29:01.559Z,3.49
2023-04-27T22:31:47.043Z,3.43
2023-04-27T22:34:32.480Z,3.37
2023-04-27T22:37:17.997Z,3.32
2023-04-27T22:40:05.985Z,3.32
2023-04-27T22:42:51.457Z,3.26
2023-04-27T22:45:38.665Z,3.23
2023-04-27T22:48:24.501Z,3.16
2023-04-27T22:51:10.184Z,3.12
2023-04-27T22:53:55.157Z,3.15
2023-04-27T22:56:41.174Z,3.10
2023-04-27T22:59:26.616Z,3.06
2023-04-27T23:02:12.088Z,3.06
2023-04-27T23:04:58.739Z,3.06
2023-04-27T23:07:43.988Z,3.07
2023-04-27T23:10:31.168Z,3.08
2023-04-27T23:13:17.756Z,3.08
2023-04-27T23:16:03.321Z,3.09
2023-04-27T23:18:48.476Z,3.05
2023-04-27T23:21:33.757Z,3.02
2023-04-27T23:24:19.136Z,2.96
2023-04-27T23:27:04.517Z,2.84
2023-04-27T23:29:50.294Z,2.70
2023-04-27T23:32:36.732Z,2.69
2023-04-27T23:35:22.365Z,2.73
2023-04-27T23:38:07.341Z,2.70
2023-04-27T23:40:52.739Z,2.67
2023-04-27T23:43:38.212Z,2.64
2023-04-27T23:46:23.539Z,2.63
2023-04-27T23:49:08.872Z,2.67
2023-04-27T23:51:54.137Z,2.68
2023-04-27T23:54:39.500Z,2.66
2023-04-27T23:57:24.927Z,2.67
